Time;durP1;ratioP1;P1;durP2;ratioP2;P2;SDS_P1;SDS_P2;PMS_P1;PMS_P2;Temp;Humidity;BMP_temperature;BMP_pressure;BME280_temperature;BME280_humidity;BME280_pressure;Samples;Min_cycle;Max_cycle;Signal;HPM_P1;HPM_P2
2022/10/09 00:00:15;;;;;;;0.10;0.10;;;;;;;;;;5026104;28;20423;-76
2022/10/09 00:02:41;;;;;;;0.10;0.10;;;;;;;;;;5023908;28;20920;-76
2022/10/09 00:05:07;;;;;;;0.10;0.10;;;;;;;;;;5023708;28;20442;-76
2022/10/09 00:07:33;;;;;;;0.30;0.30;;;;;;;;;;5027437;28;20423;-76
2022/10/09 00:09:59;;;;;;;0.10;0.10;;;;;;;;;;5009044;28;20427;-76
2022/10/09 00:12:25;;;;;;;0.10;0.10;;;;;;;;;;5026752;28;20786;-76
2022/10/09 00:14:51;;;;;;;0.00;0.00;;;;;;;;;;5027738;28;20783;-76
2022/10/09 00:17:17;;;;;;;0.40;0.30;;;;;;;;;;5026457;28;20974;-76
2022/10/09 00:19:43;;;;;;;0.10;0.10;;;;;;;;;;5025863;28;20461;-76
2022/10/09 00:22:09;;;;;;;0.10;0.10;;;;;;;;;;5027214;28;20430;-76
2022/10/09 00:24:35;;;;;;;0.10;0.10;;;;;;;;;;5008957;28;20921;-76
2022/10/09 00:27:01;;;;;;;0.10;0.10;;;;;;;;;;5023771;28;20836;-76
2022/10/09 00:29:27;;;;;;;0.10;0.10;;;;;;;;;;5029555;28;20455;-76
2022/10/09 00:31:53;;;;;;;0.10;0.10;;;;;;;;;;5027199;28;20955;-76
2022/10/09 00:34:19;;;;;;;0.10;0.10;;;;;;;;;;5021018;28;20492;-76
2022/10/09 00:36:45;;;;;;;0.10;0.10;;;;;;;;;;5025007;28;21202;-77
2022/10/09 00:39:11;;;;;;;0.10;0.10;;;;;;;;;;5026691;28;20502;-77
2022/10/09 00:41:37;;;;;;;0.10;0.10;;;;;;;;;;5025271;28;20418;-76
2022/10/09 00:44:23;;;;;;;0.10;0.10;;;;;;;;;;5024595;28;20774;-76
2022/10/09 00:46:51;;;;;;;0.30;0.30;;;;;;;;;;5007241;28;20431;-76
2022/10/09 00:49:23;;;;;;;0.00;0.00;;;;;;;;;;5025472;28;20433;-76
2022/10/09 00:51:49;;;;;;;0.10;0.10;;;;;;;;;;5023948;28;20426;-76
2022/10/09 00:54:17;;;;;;;0.13;0.13;;;;;;;;;;5028473;28;20481;-77
2022/10/09 00:56:43;;;;;;;0.10;0.10;;;;;;;;;;5023368;28;20506;-77
2022/10/09 00:59:10;;;;;;;0.10;0.10;;;;;;;;;;5004216;28;20430;-77
2022/10/09 01:01:37;;;;;;;0.10;0.10;;;;;;;;;;5026255;28;20832;-76
2022/10/09 01:04:03;;;;;;;0.10;0.10;;;;;;;;;;5025709;28;20455;-76
2022/10/09 01:06:35;;;;;;;0.10;0.10;;;;;;;;;;5026604;28;20418;-76
2022/10/09 01:09:11;;;;;;;0.10;0.10;;;;;;;;;;5021977;28;20459;-76
2022/10/09 01:11:53;;;;;;;0.10;0.10;;;;;;;;;;5025189;28;20853;-76
2022/10/09 01:14:22;;;;;;;0.10;0.10;;;;;;;;;;5024728;28;20423;-76
2022/10/09 01:16:57;;;;;;;0.10;0.10;;;;;;;;;;5007494;28;20430;-76
2022/10/09 01:19:42;;;;;;;0.10;0.10;;;;;;;;;;5025155;28;20454;-76
2022/10/09 01:22:27;;;;;;;0.10;0.10;;;;;;;;;;5023833;28;20932;-76
2022/10/09 01:24:55;;;;;;;0.10;0.10;;;;;;;;;;5023985;28;20429;-76
2022/10/09 01:27:23;;;;;;;0.10;0.10;;;;;;;;;;5025089;28;20909;-76
2022/10/09 01:29:52;;;;;;;0.10;0.10;;;;;;;;;;5024085;28;20462;-76
2022/10/09 01:32:22;;;;;;;0.10;0.10;;;;;;;;;;5025484;28;20419;-76
2022/10/09 01:34:49;;;;;;;0.10;0.10;;;;;;;;;;5005971;28;21106;-76
2022/10/09 01:37:15;;;;;;;0.10;0.10;;;;;;;;;;5026336;28;20925;-76
2022/10/09 01:39:43;;;;;;;0.10;0.10;;;;;;;;;;4989126;28;20433;-77
2022/10/09 01:42:11;;;;;;;0.00;0.00;;;;;;;;;;5025668;28;20422;-76
2022/10/09 01:44:37;;;;;;;0.10;0.10;;;;;;;;;;5023417;28;20967;-76
2022/10/09 01:47:04;;;;;;;0.10;0.10;;;;;;;;;;5025892;28;20709;-76
2022/10/09 01:49:36;;;;;;;0.10;0.10;;;;;;;;;;5026354;28;20988;-76
2022/10/09 01:52:06;;;;;;;0.10;0.10;;;;;;;;;;5008998;28;20598;-76
2022/10/09 01:54:37;;;;;;;0.10;0.10;;;;;;;;;;5024939;28;20876;-77
2022/10/09 01:57:05;;;;;;;0.22;0.17;;;;;;;;;;5027200;28;21185;-76
2022/10/09 01:59:34;;;;;;;0.20;0.20;;;;;;;;;;5022377;28;20429;-77
2022/10/09 02:02:00;;;;;;;0.10;0.10;;;;;;;;;;5026536;28;20510;-76
2022/10/09 02:04:27;;;;;;;0.10;0.10;;;;;;;;;;5007817;28;20440;-76
2022/10/09 02:06:53;;;;;;;0.05;0.05;;;;;;;;;;5024551;28;20441;-76
2022/10/09 02:09:19;;;;;;;0.10;0.10;;;;;;;;;;5024021;28;20438;-76
2022/10/09 02:11:49;;;;;;;0.20;0.20;;;;;;;;;;5024027;28;20460;-76
2022/10/09 02:14:15;;;;;;;0.10;0.10;;;;;;;;;;5025204;28;20431;-76
2022/10/09 02:16:43;;;;;;;0.00;0.00;;;;;;;;;;5004896;28;20434;-76
2022/10/09 02:19:27;;;;;;;0.20;0.20;;;;;;;;;;5023179;28;20422;-76
2022/10/09 02:21:59;;;;;;;0.10;0.10;;;;;;;;;;5025879;28;20456;-76
2022/10/09 02:24:25;;;;;;;0.10;0.10;;;;;;;;;;5022109;28;20427;-76
2022/10/09 02:26:56;;;;;;;0.10;0.10;;;;;;;;;;5013645;28;20769;-76
2022/10/09 02:29:22;;;;;;;0.10;0.10;;;;;;;;;;5029265;28;20423;-76
2022/10/09 02:31:48;;;;;;;0.10;0.10;;;;;;;;;;4991696;28;20430;-76
2022/10/09 02:34:17;;;;;;;0.10;0.10;;;;;;;;;;5029417;28;20506;-76
2022/10/09 02:36:43;;;;;;;0.13;0.13;;;;;;;;;;5030693;28;20426;-76
2022/10/09 02:39:09;;;;;;;0.10;0.10;;;;;;;;;;5025102;28;20442;-76
2022/10/09 02:41:35;;;;;;;0.10;0.10;;;;;;;;;;5031240;28;20471;-76
2022/10/09 02:44:02;;;;;;;0.10;0.10;;;;;;;;;;5028516;28;20820;-76
2022/10/09 02:46:28;;;;;;;0.20;0.20;;;;;;;;;;5030312;28;20429;-76
2022/10/09 02:48:54;;;;;;;0.10;0.10;;;;;;;;;;5026052;28;20434;-76
2022/10/09 02:51:20;;;;;;;0.10;0.10;;;;;;;;;;5000968;28;20431;-76
2022/10/09 02:53:47;;;;;;;0.10;0.10;;;;;;;;;;5005238;28;20586;-77
2022/10/09 02:56:13;;;;;;;0.10;0.10;;;;;;;;;;5023322;28;20506;-76
2022/10/09 02:58:39;;;;;;;0.10;0.10;;;;;;;;;;5025213;28;20773;-76
2022/10/09 03:01:06;;;;;;;0.10;0.10;;;;;;;;;;5022840;28;20435;-76
2022/10/09 03:03:32;;;;;;;0.10;0.10;;;;;;;;;;5024863;28;21241;-76
2022/10/09 03:06:08;;;;;;;0.10;0.10;;;;;;;;;;5027358;28;20425;-76
2022/10/09 03:08:34;;;;;;;0.10;0.10;;;;;;;;;;5030571;28;20449;-76
2022/10/09 03:11:00;;;;;;;0.10;0.10;;;;;;;;;;5027136;28;20442;-76
2022/10/09 03:13:26;;;;;;;0.10;0.10;;;;;;;;;;5010453;28;20434;-76
2022/10/09 03:15:52;;;;;;;0.10;0.10;;;;;;;;;;5024745;28;20906;-76
2022/10/09 03:18:19;;;;;;;0.60;0.60;;;;;;;;;;5027769;28;20430;-76
2022/10/09 03:20:45;;;;;;;0.10;0.10;;;;;;;;;;5025685;28;20434;-76
2022/10/09 03:23:11;;;;;;;0.10;0.10;;;;;;;;;;5029803;28;20497;-76
2022/10/09 03:25:37;;;;;;;0.10;0.10;;;;;;;;;;5025892;28;21604;-76
2022/10/09 03:28:03;;;;;;;0.10;0.10;;;;;;;;;;5029498;28;20925;-77
2022/10/09 03:30:29;;;;;;;0.10;0.10;;;;;;;;;;5025358;28;20576;-77
2022/10/09 03:32:56;;;;;;;0.10;0.10;;;;;;;;;;5028314;28;20442;-77
2022/10/09 03:35:22;;;;;;;0.10;0.10;;;;;;;;;;5026321;28;20464;-76
2022/10/09 03:37:48;;;;;;;0.08;0.08;;;;;;;;;;5026752;28;20506;-76
2022/10/09 03:40:14;;;;;;;0.30;0.13;;;;;;;;;;5027565;28;20465;-76
2022/10/09 03:42:40;;;;;;;0.10;0.10;;;;;;;;;;5026560;28;20462;-77
2022/10/09 03:45:06;;;;;;;0.10;0.10;;;;;;;;;;5027700;28;20419;-76
2022/10/09 03:47:32;;;;;;;0.10;0.10;;;;;;;;;;5010267;28;20497;-76
2022/10/09 03:49:58;;;;;;;0.10;0.10;;;;;;;;;;5029546;28;20427;-76
2022/10/09 03:52:24;;;;;;;0.20;0.10;;;;;;;;;;5013222;28;20426;-77
2022/10/09 03:54:50;;;;;;;0.10;0.10;;;;;;;;;;5009697;28;20037;-77
2022/10/09 03:57:16;;;;;;;;;;;;;;;;;;5028147;28;20037;-77
2022/10/09 03:59:42;;;;;;;;;;;;;;;;;;5027610;28;20360;-77
2022/10/09 04:02:08;;;;;;;;;;;;;;;;;;5029492;28;20422;-77
2022/10/09 04:04:34;;;;;;;;;;;;;;;;;;5028793;28;20510;-77
2022/10/09 04:07:00;;;;;;;;;;;;;;;;;;5028848;28;20356;-76
2022/10/09 04:09:26;;;;;;;;;;;;;;;;;;5012407;28;20357;-77
2022/10/09 04:11:52;;;;;;;;;;;;;;;;;;5023742;28;20352;-77
2022/10/09 04:14:18;;;;;;;;;;;;;;;;;;5028666;28;19924;-76
2022/10/09 04:16:44;;;;;;;;;;;;;;;;;;5025135;28;19929;-76
2022/10/09 04:19:11;;;;;;;;;;;;;;;;;;5012704;28;19921;-76
2022/10/09 04:21:36;;;;;;;;;;;;;;;;;;5026833;28;19928;-76
2022/10/09 04:24:02;;;;;;;;;;;;;;;;;;5027977;28;19921;-76
2022/10/09 04:26:28;;;;;;;;;;;;;;;;;;5029937;28;19924;-76
2022/10/09 04:28:54;;;;;;;;;;;;;;;;;;5028893;28;20139;-77
2022/10/09 04:31:20;;;;;;;;;;;;;;;;;;5028945;28;19964;-77
2022/10/09 04:33:46;;;;;;;;;;;;;;;;;;5029020;28;19928;-77
2022/10/09 04:36:12;;;;;;;;;;;;;;;;;;5028920;28;20272;-76
2022/10/09 04:38:38;;;;;;;;;;;;;;;;;;5011088;28;20049;-76
2022/10/09 04:41:04;;;;;;;;;;;;;;;;;;5009542;28;19921;-76
2022/10/09 04:43:30;;;;;;;;;;;;;;;;;;5030525;28;19928;-76
2022/10/09 04:45:56;;;;;;;;;;;;;;;;;;5024905;28;20370;-76
2022/10/09 04:48:22;;;;;;;;;;;;;;;;;;5013797;28;20331;-76
2022/10/09 04:50:48;;;;;;;;;;;;;;;;;;5028597;28;19924;-76
2022/10/09 04:53:14;;;;;;;;;;;;;;;;;;5025596;28;19986;-76
2022/10/09 04:55:40;;;;;;;;;;;;;;;;;;5010048;28;19928;-76
2022/10/09 04:58:06;;;;;;;;;;;;;;;;;;5027907;28;19925;-77
2022/10/09 05:00:32;;;;;;;;;;;;;;;;;;5026641;28;19947;-77
2022/10/09 05:02:58;;;;;;;;;;;;;;;;;;5025106;28;19958;-77
2022/10/09 05:05:24;;;;;;;;;;;;;;;;;;5027907;28;19932;-77
2022/10/09 05:07:50;;;;;;;;;;;;;;;;;;5026847;28;19928;-77
2022/10/09 05:10:16;;;;;;;;;;;;;;;;;;5029004;28;20194;-77
2022/10/09 05:12:42;;;;;;;;;;;;;;;;;;5026289;28;19935;-77
2022/10/09 05:15:08;;;;;;;;;;;;;;;;;;5009759;28;19940;-77
2022/10/09 05:17:34;;;;;;;;;;;;;;;;;;5026557;28;19925;-77
2022/10/09 05:20:00;;;;;;;;;;;;;;;;;;5028667;28;19936;-77
2022/10/09 05:22:26;;;;;;;;;;;;;;;;;;5027810;28;20036;-77
2022/10/09 05:24:51;;;;;;;;;;;;;;;;;;5026367;28;19921;-77
2022/10/09 05:27:17;;;;;;;;;;;;;;;;;;5023351;28;19921;-77
2022/10/09 05:29:43;;;;;;;;;;;;;;;;;;5028488;28;19968;-77
2022/10/09 05:32:09;;;;;;;;;;;;;;;;;;5024336;28;19985;-77
2022/10/09 05:34:35;;;;;;;;;;;;;;;;;;5028119;28;19979;-77
2022/10/09 05:37:01;;;;;;;;;;;;;;;;;;5026070;28;19925;-77
2022/10/09 05:39:27;;;;;;;;;;;;;;;;;;5026964;28;19928;-77
2022/10/09 05:41:53;;;;;;;;;;;;;;;;;;5026807;28;19967;-76
2022/10/09 05:44:19;;;;;;;;;;;;;;;;;;5008088;28;19925;-77
2022/10/09 05:46:45;;;;;;;;;;;;;;;;;;5025197;28;19925;-77
2022/10/09 05:49:11;;;;;;;;;;;;;;;;;;5009231;28;19925;-77
2022/10/09 05:51:37;;;;;;;;;;;;;;;;;;5028516;28;19921;-77
2022/10/09 05:54:03;;;;;;;;;;;;;;;;;;5025297;28;20308;-78
2022/10/09 05:56:29;;;;;;;;;;;;;;;;;;5026233;28;19929;-78
2022/10/09 05:58:55;;;;;;;;;;;;;;;;;;5023824;28;21528;-77
2022/10/09 06:01:21;;;;;;;;;;;;;;;;;;5022856;28;19927;-78
2022/10/09 06:03:47;;;;;;;;;;;;;;;;;;5027377;28;19960;-77
2022/10/09 06:06:13;;;;;;;;;;;;;;;;;;5024953;28;19921;-77
2022/10/09 06:08:39;;;;;;;;;;;;;;;;;;5025587;28;19927;-77
2022/10/09 06:11:05;;;;;;;;;;;;;;;;;;5024864;28;20027;-77
2022/10/09 06:13:31;;;;;;;;;;;;;;;;;;5026298;28;19928;-77
2022/10/09 06:15:56;;;;;;;;;;;;;;;;;;5023728;28;19921;-77
2022/10/09 06:18:22;;;;;;;;;;;;;;;;;;5025577;28;19921;-77
2022/10/09 06:20:48;;;;;;;;;;;;;;;;;;5025417;28;19928;-77
2022/10/09 06:23:14;;;;;;;;;;;;;;;;;;5023461;28;19971;-77
2022/10/09 06:25:40;;;;;;;;;;;;;;;;;;5028072;28;19921;-79
2022/10/09 06:28:06;;;;;;;;;;;;;;;;;;5013423;28;20361;-77
2022/10/09 06:30:32;;;;;;;;;;;;;;;;;;5013802;28;19968;-76
2022/10/09 06:32:58;;;;;;;;;;;;;;;;;;5028255;28;19921;-79
2022/10/09 06:35:24;;;;;;;;;;;;;;;;;;5007736;28;19974;-79
2022/10/09 06:37:50;;;;;;;;;;;;;;;;;;5025274;28;19929;-79
2022/10/09 06:40:16;;;;;;;;;;;;;;;;;;5025378;28;20019;-80
2022/10/09 06:42:42;;;;;;;;;;;;;;;;;;5018811;28;19967;-77
2022/10/09 06:45:08;;;;;;;;;;;;;;;;;;5022973;28;20189;-78
2022/10/09 06:47:34;;;;;;;;;;;;;;;;;;5027490;28;19932;-78
2022/10/09 06:50:00;;;;;;;;;;;;;;;;;;5029228;28;20312;-78
2022/10/09 06:52:26;;;;;;;;;;;;;;;;;;4992295;28;20272;-79
2022/10/09 06:54:51;;;;;;;;;;;;;;;;;;5010947;28;19922;-78
2022/10/09 06:57:17;;;;;;;;;;;;;;;;;;5003460;28;20533;-78
2022/10/09 06:59:44;;;;;;;;;;;;;;;;;;5012922;28;19925;-78
2022/10/09 07:02:10;;;;;;;;;;;;;;;;;;5027143;28;19932;-77
2022/10/09 07:04:36;;;;;;;;;;;;;;;;;;5029860;28;19921;-77
2022/10/09 07:07:02;;;;;;;;;;;;;;;;;;5021858;28;19921;-77
2022/10/09 07:09:28;;;;;;;;;;;;;;;;;;5027040;28;19983;-76
2022/10/09 07:11:54;;;;;;;;;;;;;;;;;;5001848;28;19925;-81
2022/10/09 07:14:20;;;;;;;;;;;;;;;;;;5023649;28;20085;-79
2022/10/09 07:16:46;;;;;;;;;;;;;;;;;;5025226;28;19930;-85
2022/10/09 07:19:12;;;;;;;;;;;;;;;;;;5008430;28;19932;-79
2022/10/09 07:21:38;;;;;;;;;;;;;;;;;;5024189;28;19968;-80
2022/10/09 07:24:04;;;;;;;;;;;;;;;;;;5029522;28;20083;-85
2022/10/09 07:26:29;;;;;;;;;;;;;;;;;;5009645;28;19929;-85
2022/10/09 07:28:55;;;;;;;;;;;;;;;;;;5012544;28;19921;-82
2022/10/09 07:31:22;;;;;;;;;;;;;;;;;;5015163;28;19925;-84
2022/10/09 07:33:48;;;;;;;;;;;;;;;;;;5006376;28;19951;-81
2022/10/09 07:36:13;;;;;;;;;;;;;;;;;;5030106;28;20384;-83
2022/10/09 07:38:39;;;;;;;;;;;;;;;;;;5030361;28;19921;-75
2022/10/09 07:41:05;;;;;;;;;;;;;;;;;;5005602;28;19921;-76
2022/10/09 07:43:31;;;;;;;;;;;;;;;;;;5010565;28;19925;-78
2022/10/09 07:45:57;;;;;;;;;;;;;;;;;;5008216;28;19924;-76
2022/10/09 07:48:23;;;;;;;;;;;;;;;;;;5004305;28;20399;-82
2022/10/09 07:50:49;;;;;;;;;;;;;;;;;;5020084;28;20315;-81
2022/10/09 07:53:15;;;;;;;;;;;;;;;;;;5015626;28;19956;-80
2022/10/09 07:55:41;;;;;;;;;;;;;;;;;;5007058;28;19928;-80
2022/10/09 07:58:07;;;;;;;;;;;;;;;;;;5024627;28;20296;-79
2022/10/09 08:00:33;;;;;;;;;;;;;;;;;;5029443;28;19925;-81
2022/10/09 08:02:59;;;;;;;;;;;;;;;;;;5014920;28;20315;-79
2022/10/09 08:05:25;;;;;;;;;;;;;;;;;;5010658;28;19944;-80
2022/10/09 08:07:51;;;;;;;;;;;;;;;;;;5012776;28;19920;-81
2022/10/09 08:10:17;;;;;;;;;;;;;;;;;;5005983;28;20038;-81
2022/10/09 08:12:43;;;;;;;;;;;;;;;;;;5033077;28;19921;-81
2022/10/09 08:15:08;;;;;;;;;;;;;;;;;;5015822;28;20051;-80
2022/10/09 08:17:34;;;;;;;;;;;;;;;;;;5034785;28;20368;-81
2022/10/09 08:20:00;;;;;;;;;;;;;;;;;;5033129;28;20365;-80
2022/10/09 08:22:26;;;;;;;;;;;;;;;;;;5032569;28;19929;-80
2022/10/09 08:24:52;;;;;;;;;;;;;;;;;;5027998;28;19921;-80
2022/10/09 08:27:18;;;;;;;;;;;;;;;;;;5017395;28;19969;-80
2022/10/09 08:29:44;;;;;;;;;;;;;;;;;;5022236;28;20040;-81
2022/10/09 08:32:10;;;;;;;;;;;;;;;;;;5032291;28;19921;-83
2022/10/09 08:34:36;;;;;;;;;;;;;;;;;;5031271;28;19921;-81
2022/10/09 08:37:02;;;;;;;;;;;;;;;;;;5009451;28;19953;-80
2022/10/09 08:39:29;;;;;;;;;;;;;;;;;;5026529;28;20365;-82
2022/10/09 08:41:56;;;;;;;;;;;;;;;;;;5033706;28;19928;-81
2022/10/09 08:44:22;;;;;;;;;;;;;;;;;;5030693;28;19967;-81
2022/10/09 08:46:48;;;;;;;;;;;;;;;;;;5030920;28;19921;-81
2022/10/09 08:49:14;;;;;;;;;;;;;;;;;;4999744;28;19932;-81
2022/10/09 08:51:40;;;;;;;;;;;;;;;;;;5016188;28;20007;-81
2022/10/09 08:54:06;;;;;;;;;;;;;;;;;;5031856;28;19925;-81
2022/10/09 08:56:32;;;;;;;;;;;;;;;;;;5012459;28;19925;-81
2022/10/09 08:58:58;;;;;;;;;;;;;;;;;;5016398;28;20280;-82
2022/10/09 09:01:24;;;;;;;;;;;;;;;;;;5023443;28;19929;-82
2022/10/09 09:03:50;;;;;;;;;;;;;;;;;;5011254;28;19927;-80
2022/10/09 09:06:15;;;;;;;;;;;;;;;;;;5015507;28;19920;-80
2022/10/09 09:08:43;;;;;;;;;;;;;;;;;;5012762;28;19921;-81
2022/10/09 09:11:08;;;;;;;;;;;;;;;;;;5015124;28;19921;-81
2022/10/09 09:13:34;;;;;;;;;;;;;;;;;;5024803;28;20387;-84
2022/10/09 09:16:00;;;;;;;;;;;;;;;;;;5030934;28;19964;-82
2022/10/09 09:18:26;;;;;;;;;;;;;;;;;;5015241;28;19921;-82
2022/10/09 09:20:52;;;;;;;;;;;;;;;;;;5031487;28;20364;-85
2022/10/09 09:23:18;;;;;;;;;;;;;;;;;;5009591;28;20440;-84
2022/10/09 09:25:45;;;;;;;;;;;;;;;;;;5013812;28;19925;-83
2022/10/09 09:28:11;;;;;;;;;;;;;;;;;;5006646;28;19925;-83
2022/10/09 09:30:36;;;;;;;;;;;;;;;;;;5030547;28;19921;-84
2022/10/09 09:33:02;;;;;;;;;;;;;;;;;;5026718;28;20357;-82
2022/10/09 09:35:29;;;;;;;;;;;;;;;;;;5013341;28;20380;-83
2022/10/09 09:37:55;;;;;;;;;;;;;;;;;;5014058;28;19921;-83
2022/10/09 09:40:21;;;;;;;;;;;;;;;;;;5015673;28;19921;-83
2022/10/09 09:42:47;;;;;;;;;;;;;;;;;;5013173;28;20393;-83
2022/10/09 09:45:13;;;;;;;;;;;;;;;;;;5009534;28;20385;-83
2022/10/09 09:47:39;;;;;;;;;;;;;;;;;;5010710;28;19944;-84
2022/10/09 09:50:04;;;;;;;;;;;;;;;;;;5030554;28;19920;-83
2022/10/09 09:52:30;;;;;;;;;;;;;;;;;;5011356;28;19921;-84
2022/10/09 09:54:57;;;;;;;;;;;;;;;;;;5028649;28;19921;-83
2022/10/09 09:57:22;;;;;;;;;;;;;;;;;;5012942;28;19978;-83
2022/10/09 09:59:48;;;;;;;;;;;;;;;;;;5016270;28;19921;-84
2022/10/09 10:02:14;;;;;;;;;;;;;;;;;;5017814;28;19999;-83
2022/10/09 10:04:40;;;;;;;;;;;;;;;;;;5026306;28;19922;-85
2022/10/09 10:07:06;;;;;;;;;;;;;;;;;;5028143;28;20063;-82
2022/10/09 10:09:32;;;;;;;;;;;;;;;;;;5027110;28;19928;-83
2022/10/09 10:11:58;;;;;;;;;;;;;;;;;;5015253;28;19921;-84
2022/10/09 10:14:24;;;;;;;;;;;;;;;;;;5029167;28;19932;-84
2022/10/09 10:16:50;;;;;;;;;;;;;;;;;;5015271;28;19921;-83
2022/10/09 10:19:16;;;;;;;;;;;;;;;;;;5015162;28;20007;-83
2022/10/09 10:21:42;;;;;;;;;;;;;;;;;;5032150;28;20404;-83
2022/10/09 10:24:08;;;;;;;;;;;;;;;;;;5017056;28;19991;-82
2022/10/09 10:26:34;;;;;;;;;;;;;;;;;;5015791;28;19925;-83
2022/10/09 10:29:01;;;;;;;;;;;;;;;;;;5019750;28;20344;-83
2022/10/09 10:31:26;;;;;;;;;;;;;;;;;;5029984;28;19921;-83
2022/10/09 10:33:52;;;;;;;;;;;;;;;;;;5031480;28;19921;-83
2022/10/09 10:36:18;;;;;;;;;;;;;;;;;;4995911;28;19978;-83
2022/10/09 10:38:44;;;;;;;;;;;;;;;;;;5031946;28;19925;-83
2022/10/09 10:41:10;;;;;;;;;;;;;;;;;;5011069;28;19921;-83
2022/10/09 10:43:36;;;;;;;;;;;;;;;;;;5012409;28;19964;-83
2022/10/09 10:46:02;;;;;;;;;;;;;;;;;;5022065;28;19921;-82
2022/10/09 10:48:28;;;;;;;;;;;;;;;;;;5014527;28;20012;-83
2022/10/09 10:50:54;;;;;;;;;;;;;;;;;;5029888;28;19939;-85
2022/10/09 10:53:20;;;;;;;;;;;;;;;;;;5012407;28;19982;-83
2022/10/09 10:55:46;;;;;;;;;;;;;;;;;;5014567;28;19966;-83
2022/10/09 10:58:12;;;;;;;;;;;;;;;;;;5027794;28;19921;-83
2022/10/09 11:00:38;;;;;;;;;;;;;;;;;;5027496;28;19928;-83
2022/10/09 11:03:04;;;;;;;;;;;;;;;;;;5031696;28;19925;-82
2022/10/09 11:05:30;;;;;;;;;;;;;;;;;;5029683;28;19927;-83
2022/10/09 11:07:56;;;;;;;;;;;;;;;;;;5007255;28;19921;-83
2022/10/09 11:10:22;;;;;;;;;;;;;;;;;;5026593;28;19921;-83
2022/10/09 11:12:48;;;;;;;;;;;;;;;;;;5026108;28;19921;-83
2022/10/09 11:15:15;;;;;;;;;;;;;;;;;;5028752;28;19932;-81
2022/10/09 11:17:41;;;;;;;;;;;;;;;;;;5015476;28;19990;-83
2022/10/09 11:20:07;;;;;;;;;;;;;;;;;;5022022;28;19922;-83
2022/10/09 11:22:33;;;;;;;;;;;;;;;;;;5028170;28;19927;-83
2022/10/09 11:24:59;;;;;;;;;;;;;;;;;;5012233;28;20269;-82
2022/10/09 11:27:25;;;;;;;;;;;;;;;;;;5035182;28;19929;-83
2022/10/09 11:29:51;;;;;;;;;;;;;;;;;;5015758;28;20027;-83
2022/10/09 11:32:17;;;;;;;;;;;;;;;;;;5017050;28;20397;-83
2022/10/09 11:34:43;;;;;;;;;;;;;;;;;;5015534;28;20356;-83
2022/10/09 11:37:09;;;;;;;;;;;;;;;;;;5032980;28;20439;-82
2022/10/09 11:39:35;;;;;;;;;;;;;;;;;;5017368;28;20406;-83
2022/10/09 11:42:01;;;;;;;;;;;;;;;;;;5010248;28;19921;-82
2022/10/09 11:44:27;;;;;;;;;;;;;;;;;;5015850;28;19928;-83
2022/10/09 11:46:53;;;;;;;;;;;;;;;;;;5035265;28;19921;-83
2022/10/09 11:49:19;;;;;;;;;;;;;;;;;;5032720;28;19925;-83
2022/10/09 11:51:45;;;;;;;;;;;;;;;;;;5018133;28;19921;-83
2022/10/09 11:54:11;;;;;;;;;;;;;;;;;;5014545;28;20368;-83
2022/10/09 11:56:37;;;;;;;;;;;;;;;;;;5015964;28;19920;-83
2022/10/09 11:59:02;;;;;;;;;;;;;;;;;;5017687;28;19975;-83
2022/10/09 12:01:28;;;;;;;;;;;;;;;;;;5016004;28;19921;-82
2022/10/09 12:03:54;;;;;;;;;;;;;;;;;;5034421;28;20014;-83
2022/10/09 12:06:21;;;;;;;;;;;;;;;;;;5030725;28;19924;-82
2022/10/09 12:08:47;;;;;;;;;;;;;;;;;;5010646;28;20418;-83
2022/10/09 12:11:13;;;;;;;;;;;;;;;;;;5033102;28;19972;-83
2022/10/09 12:13:39;;;;;;;;;;;;;;;;;;5032659;28;20603;-83
2022/10/09 12:16:05;;;;;;;;;;;;;;;;;;5015891;28;20378;-83
2022/10/09 12:18:31;;;;;;;;;;;;;;;;;;5030576;28;20458;-83
2022/10/09 12:20:57;;;;;;;;;;;;;;;;;;4999744;28;19928;-79
2022/10/09 12:23:23;;;;;;;;;;;;;;;;;;5030733;28;19932;-81
2022/10/09 12:25:49;;;;;;;;;;;;;;;;;;4997686;28;19921;-80
2022/10/09 12:28:15;;;;;;;;;;;;;;;;;;5016187;28;19933;-80
2022/10/09 12:30:41;;;;;;;;;;;;;;;;;;5030740;28;19925;-81
2022/10/09 12:33:07;;;;;;;;;;;;;;;;;;5014848;28;19921;-82
2022/10/09 12:35:33;;;;;;;;;;;;;;;;;;5032034;28;20340;-82
2022/10/09 12:37:59;;;;;;;;;;;;;;;;;;5015741;28;19921;-82
2022/10/09 12:40:25;;;;;;;;;;;;;;;;;;5023759;28;19928;-83
2022/10/09 12:42:51;;;;;;;;;;;;;;;;;;5008707;28;20372;-83
2022/10/09 12:45:17;;;;;;;;;;;;;;;;;;5030980;28;19929;-83
2022/10/09 12:47:43;;;;;;;;;;;;;;;;;;5031144;28;19932;-82
2022/10/09 12:50:09;;;;;;;;;;;;;;;;;;5020657;28;19972;-83
2022/10/09 12:52:34;;;;;;;;;;;;;;;;;;5012152;28;19929;-84
2022/10/09 12:55:01;;;;;;;;;;;;;;;;;;5009021;28;19921;-84
2022/10/09 12:57:27;;;;;;;;;;;;;;;;;;5032576;28;19921;-85
2022/10/09 12:59:53;;;;;;;;;;;;;;;;;;5016422;28;20015;-84
2022/10/09 13:02:20;;;;;;;;;;;;;;;;;;5023937;28;20380;-85
2022/10/09 13:04:46;;;;;;;;;;;;;;;;;;5027767;28;20284;-83
2022/10/09 13:07:12;;;;;;;;;;;;;;;;;;5031151;28;19921;-83
2022/10/09 13:09:38;;;;;;;;;;;;;;;;;;5014621;28;20430;-83
2022/10/09 13:12:04;;;;;;;;;;;;;;;;;;5030797;28;20376;-83
2022/10/09 13:14:30;;;;;;;;;;;;;;;;;;5032383;28;20262;-85
2022/10/09 13:16:56;;;;;;;;;;;;;;;;;;5032793;28;19925;-84
2022/10/09 13:19:22;;;;;;;;;;;;;;;;;;5033210;28;19921;-83
2022/10/09 13:21:48;;;;;;;;;;;;;;;;;;5029302;28;19920;-83
2022/10/09 13:24:14;;;;;;;;;;;;;;;;;;5026405;28;20012;-86
2022/10/09 13:26:40;;;;;;;;;;;;;;;;;;5024396;28;19991;-82
2022/10/09 13:29:06;;;;;;;;;;;;;;;;;;5014809;28;20378;-82
2022/10/09 13:31:32;;;;;;;;;;;;;;;;;;5024114;28;19921;-83
2022/10/09 13:33:58;;;;;;;;;;;;;;;;;;5014594;28;20300;-83
2022/10/09 13:36:24;;;;;;;;;;;;;;;;;;5032236;28;19925;-83
2022/10/09 13:38:50;;;;;;;;;;;;;;;;;;5015566;28;19967;-83
2022/10/09 13:41:16;;;;;;;;;;;;;;;;;;5031446;28;19925;-83
2022/10/09 13:43:42;;;;;;;;;;;;;;;;;;5032064;28;20008;-83
2022/10/09 13:46:08;;;;;;;;;;;;;;;;;;5014019;28;19928;-83
2022/10/09 13:48:34;;;;;;;;;;;;;;;;;;5025175;28;19987;-83
2022/10/09 13:51:00;;;;;;;;;;;;;;;;;;5020218;28;19921;-84
2022/10/09 13:53:26;;;;;;;;;;;;;;;;;;5012856;28;19921;-83
2022/10/09 13:55:52;;;;;;;;;;;;;;;;;;5010068;28;19931;-84
2022/10/09 13:58:18;;;;;;;;;;;;;;;;;;5003676;28;19925;-83
2022/10/09 14:00:44;;;;;;;;;;;;;;;;;;5030538;28;19924;-83
2022/10/09 14:03:10;;;;;;;;;;;;;;;;;;5028111;28;19928;-83
2022/10/09 14:05:36;;;;;;;;;;;;;;;;;;5028240;28;19921;-82
2022/10/09 14:08:02;;;;;;;;;;;;;;;;;;5030636;28;19921;-83
2022/10/09 14:10:28;;;;;;;;;;;;;;;;;;5023094;28;20291;-83
2022/10/09 14:12:54;;;;;;;;;;;;;;;;;;5029823;28;19928;-83
2022/10/09 14:15:20;;;;;;;;;;;;;;;;;;5014487;28;19921;-83
2022/10/09 14:17:46;;;;;;;;;;;;;;;;;;5031193;28;19925;-82
2022/10/09 14:20:12;;;;;;;;;;;;;;;;;;5031611;28;19967;-81
2022/10/09 14:22:38;;;;;;;;;;;;;;;;;;5012694;28;19925;-84
2022/10/09 14:25:04;;;;;;;;;;;;;;;;;;5014826;28;20341;-82
2022/10/09 14:27:30;;;;;;;;;;;;;;;;;;5031283;28;19943;-82
2022/10/09 14:29:56;;;;;;;;;;;;;;;;;;4984246;28;19921;-81
2022/10/09 14:32:22;;;;;;;;;;;;;;;;;;5029495;28;19932;-83
2022/10/09 14:34:48;;;;;;;;;;;;;;;;;;5020320;28;19927;-82
2022/10/09 14:37:14;;;;;;;;;;;;;;;;;;5025947;28;19925;-81
2022/10/09 14:39:42;;;;;;;;;;;;;;;;;;5012952;28;19925;-85
2022/10/09 14:42:08;;;;;;;;;;;;;;;;;;5013864;28;19928;-83
2022/10/09 14:44:34;;;;;;;;;;;;;;;;;;5028142;28;19925;-83
2022/10/09 14:47:00;;;;;;;;;;;;;;;;;;5012230;28;19920;-82
2022/10/09 14:49:26;;;;;;;;;;;;;;;;;;5028844;28;19974;-82
2022/10/09 14:51:52;;;;;;;;;;;;;;;;;;5013240;28;19921;-82
2022/10/09 14:54:18;;;;;;;;;;;;;;;;;;4997782;28;19932;-82
2022/10/09 14:56:44;;;;;;;;;;;;;;;;;;5026274;28;19921;-83
2022/10/09 14:59:09;;;;;;;;;;;;;;;;;;5019795;28;19982;-82
2022/10/09 15:01:35;;;;;;;;;;;;;;;;;;5012516;28;19921;-82
2022/10/09 15:04:01;;;;;;;;;;;;;;;;;;5030922;28;19921;-82
2022/10/09 15:06:27;;;;;;;;;;;;;;;;;;5030031;28;19943;-83
2022/10/09 15:08:53;;;;;;;;;;;;;;;;;;5031547;28;20489;-82
2022/10/09 15:11:19;;;;;;;;;;;;;;;;;;5025632;28;19929;-84
2022/10/09 15:13:45;;;;;;;;;;;;;;;;;;5013265;28;19921;-83
2022/10/09 15:16:11;;;;;;;;;;;;;;;;;;5008211;28;19972;-82
2022/10/09 15:18:37;;;;;;;;;;;;;;;;;;5025523;28;19973;-82
2022/10/09 15:21:03;;;;;;;;;;;;;;;;;;5029809;28;19928;-82
2022/10/09 15:23:29;;;;;;;;;;;;;;;;;;5014013;28;19927;-83
2022/10/09 15:25:55;;;;;;;;;;;;;;;;;;5030771;28;20552;-82
2022/10/09 15:28:21;;;;;;;;;;;;;;;;;;5030278;28;19921;-81
2022/10/09 15:30:47;;;;;;;;;;;;;;;;;;5030437;28;19921;-82
2022/10/09 15:33:13;;;;;;;;;;;;;;;;;;5012375;28;20011;-81
2022/10/09 15:35:39;;;;;;;;;;;;;;;;;;5029013;28;19921;-81
2022/10/09 15:38:05;;;;;;;;;;;;;;;;;;5031390;28;19925;-82
2022/10/09 15:40:30;;;;;;;;;;;;;;;;;;4997367;28;20368;-82
2022/10/09 15:42:56;;;;;;;;;;;;;;;;;;5029084;28;20095;-82
2022/10/09 15:45:22;;;;;;;;;;;;;;;;;;5030323;28;19928;-82
2022/10/09 15:47:48;;;;;;;;;;;;;;;;;;5029941;28;19928;-81
2022/10/09 15:50:14;;;;;;;;;;;;;;;;;;5013256;28;19925;-81
2022/10/09 15:52:40;;;;;;;;;;;;;;;;;;5012254;28;19921;-81
2022/10/09 15:55:06;;;;;;;;;;;;;;;;;;5033144;28;19928;-81
2022/10/09 15:57:32;;;;;;;;;;;;;;;;;;5031438;28;20000;-81
2022/10/09 15:59:58;;;;;;;;;;;;;;;;;;5013603;28;20507;-82
2022/10/09 16:02:24;;;;;;;;;;;;;;;;;;5002065;28;20291;-81
2022/10/09 16:04:50;;;;;;;;;;;;;;;;;;5014182;28;19921;-82